Time;durP1;ratioP1;P1;durP2;ratioP2;P2;SDS_P1;SDS_P2;PMS_P1;PMS_P2;Temp;Humidity;BMP_temperature;BMP_pressure;BME280_temperature;BME280_humidity;BME280_pressure;Samples;Min_cycle;Max_cycle;Signal;HPM_P1;HPM_P2
2021/12/28 21:58:02;;;;;;;;;;;;;;;5.11;63.35;99265.25;6328243;22;1541;-94
2021/12/28 22:00:54;;;;;;;;;;;;;;;5.10;63.69;99252.94;6343838;22;618;-95
2021/12/28 22:03:21;;;;;;;;;;;;;;;5.10;63.75;99250.28;6316856;22;1267;-94
2021/12/28 22:05:47;;;;;;;;;;;;;;;5.09;63.68;99258.47;6314851;22;1952;-94
2021/12/28 22:08:13;;;;;;;;;;;;;;;5.09;63.71;99270.00;6316148;22;1214;-94
2021/12/28 22:10:40;;;;;;;;;;;;;;;5.10;63.70;99270.81;6315423;22;1346;-94
2021/12/28 22:13:07;;;;;;;;;;;;;;;5.09;63.75;99272.66;6317141;22;1265;-95
2021/12/28 22:15:34;;;;;;;;;;;;;;;5.09;63.59;99275.34;6315604;22;1297;-93
2021/12/28 22:18:00;;;;;;;;;;;;;;;5.12;63.38;99258.06;6316315;22;1247;-94
2021/12/28 22:20:27;;;;;;;;;;;;;;;5.11;63.57;99265.25;6317884;22;1385;-94
2021/12/28 22:22:54;;;;;;;;;;;;;;;5.11;63.54;99265.25;6317783;22;1188;-94
2021/12/28 22:25:20;;;;;;;;;;;;;;;5.10;63.71;99270.81;6317672;22;1940;-93
2021/12/28 22:27:47;;;;;;;;;;;;;;;5.09;63.69;99272.66;6317424;22;1272;-95
2021/12/28 22:30:13;;;;;;;;;;;;;;;5.10;63.70;99270.81;6317567;22;1366;-94
2021/12/28 22:32:41;;;;;;;;;;;;;;;5.12;63.33;99269.56;6316958;22;1312;-94
2021/12/28 22:35:07;;;;;;;;;;;;;;;5.12;63.50;99266.09;6316427;22;1307;-94
2021/12/28 22:37:35;;;;;;;;;;;;;;;5.11;63.45;99267.09;6317707;22;1158;-94
2021/12/28 22:40:03;;;;;;;;;;;;;;;5.09;63.57;99263.81;6321034;22;1179;-95
2021/12/28 22:42:30;;;;;;;;;;;;;;;5.08;63.60;99260.34;6319644;22;1251;-95
2021/12/28 22:44:58;;;;;;;;;;;;;;;5.10;63.50;99255.59;6319600;22;1941;-94
2021/12/28 22:47:26;;;;;;;;;;;;;;;5.10;63.44;99266.28;6318671;22;1221;-94
2021/12/28 22:49:53;;;;;;;;;;;;;;;5.11;63.40;99261.75;6322017;22;1147;-95
2021/12/28 22:52:19;;;;;;;;;;;;;;;5.11;63.52;99267.09;6319533;22;1419;-94
2021/12/28 22:54:46;;;;;;;;;;;;;;;5.14;63.42;99270.16;6318289;22;1150;-94
2021/12/28 22:57:12;;;;;;;;;;;;;;;5.11;63.42;99285.78;6311776;22;1451;-94
2021/12/28 22:59:40;;;;;;;;;;;;;;;5.10;63.43;99290.31;6312290;22;1142;-95
2021/12/28 23:02:06;;;;;;;;;;;;;;;5.09;63.53;99279.81;6313913;22;1221;-96
2021/12/28 23:04:33;;;;;;;;;;;;;;;5.11;63.44;99285.78;6315380;22;1455;-95
2021/12/28 23:06:59;;;;;;;;;;;;;;;5.11;63.38;99291.94;6315564;22;1896;-95
2021/12/28 23:09:26;;;;;;;;;;;;;;;5.09;63.65;99286.00;6316386;22;1315;-96
2021/12/28 23:11:53;;;;;;;;;;;;;;;5.12;63.54;99292.78;6314091;22;1220;-96
2021/12/28 23:14:23;;;;;;;;;;;;;;;5.14;63.34;99298.69;6316858;22;1320;-95
2021/12/28 23:16:50;;;;;;;;;;;;;;;5.12;63.37;99298.13;6315923;22;1260;-95
2021/12/28 23:19:17;;;;;;;;;;;;;;;5.08;63.40;99297.69;6315646;22;1276;-95
2021/12/28 23:21:44;;;;;;;;;;;;;;;5.11;63.40;99299.94;6312453;22;1246;-94
2021/12/28 23:24:11;;;;;;;;;;;;;;;5.10;63.30;99295.63;6312064;22;1232;-94
2021/12/28 23:26:37;;;;;;;;;;;;;;;5.12;63.42;99301.59;6311276;22;1908;-95
2021/12/28 23:29:04;;;;;;;;;;;;;;;5.13;63.25;99300.56;6310549;22;1146;-94
2021/12/28 23:31:31;;;;;;;;;;;;;;;5.12;63.34;99300.78;6312361;22;1283;-95
2021/12/28 23:33:58;;;;;;;;;;;;;;;5.09;63.57;99304.69;6312798;22;1224;-94
2021/12/28 23:36:26;;;;;;;;;;;;;;;5.09;63.37;99306.53;6314649;22;1201;-94
2021/12/28 23:38:53;;;;;;;;;;;;;;;5.10;63.53;99302.84;6315440;22;1264;-95
2021/12/28 23:41:20;;;;;;;;;;;;;;;5.11;63.32;99302.59;6313303;22;1135;-95
2021/12/28 23:43:46;;;;;;;;;;;;;;;5.11;63.48;99301.78;6311791;22;1253;-96
2021/12/28 23:46:13;;;;;;;;;;;;;;;5.10;63.27;99297.50;6313371;22;1949;-94
2021/12/28 23:48:39;;;;;;;;;;;;;;;5.11;63.34;99293.78;6311915;22;1261;-94
2021/12/28 23:51:05;;;;;;;;;;;;;;;5.12;63.32;99292.78;6310863;22;1146;-94
2021/12/28 23:53:32;;;;;;;;;;;;;;;5.08;63.29;99296.88;6316666;22;1400;-96
2021/12/28 23:55:58;;;;;;;;;;;;;;;5.09;63.32;99301.19;6312775;22;1292;-95
2021/12/28 23:58:24;;;;;;;;;;;;;;;5.10;63.26;99303.66;6310806;22;1360;-93
